Latest Weather Observations for Cooktown

IDQ60801

Issued at 8:32 pm EST Monday 17 December 2018 (issued every 10 minutes, with the page automatically refreshed every 10 minutes)

About weather observations | Map of weather stations | Latest weather observations for QLD | Other Formats
Station Details ID: 031209 Name: COOKTOWN AIRPORT Lat: -15.45 Lon: 145.19 Height: 4.8 m
Data from the previous 72 hours. | See also: Recent months at Cooktown
Date/Time
EST
Temp
°C
App
Temp
°C
Dew
Point
°C
Rel
Hum
%
Delta-T
°C
Wind Press
QNH
hPa
Press
MSL
hPa
Rain since
9am
mm
Dir  Spd
km/h
Gust
km/h
Spd
kts
Gust
kts
17/08:30pm 27.3 32.0 22.0 73 3.6 CALM 0 0 0 0 1005.1 1005.0 0.0
17/08:00pm 28.0 32.6 21.8 69 4.2 CALM 0 0 0 0 1004.7 1004.6 0.0
17/07:30pm 29.2 33.1 20.4 59 5.8 CALM 0 0 0 0 1004.3 1004.2 0.0
17/07:00pm 31.7 34.4 20.3 50 7.6 NW 6 11 3 6 1004.1 1004.0 0.0
17/06:30pm 32.6 34.7 20.2 48 8.2 NNE 9 15 5 8 1003.7 1003.6 0.0
17/06:00pm 34.6 36.0 17.8 37 10.9 NNW 7 11 4 6 1003.2 1003.1 0.0
17/05:30pm 36.3 35.8 14.9 28 13.4 WNW 11 17 6 9 1003.0 1002.9 0.0
17/05:00pm 37.1 35.8 13.8 25 14.4 WSW 13 20 7 11 1002.9 1002.8 0.0
17/04:30pm 37.3 36.4 12.7 23 14.9 SW 9 15 5 8 1002.7 1002.6 0.0
17/04:00pm 37.4 35.6 13.4 24 14.8 WSW 15 26 8 14 1002.7 1002.6 0.0
17/03:30pm 37.6 37.7 15.4 27 14.0 SSW 9 13 5 7 1002.7 1002.6 0.0
17/03:00pm 37.7 37.0 14.3 25 14.6 SW 11 20 6 11 1003.1 1003.0 0.0
17/02:30pm 37.3 37.2 13.3 23 14.7 WNW 6 15 3 8 1003.6 1003.5 0.0
17/02:00pm 37.3 37.1 15.7 27 13.7 SW 11 22 6 12 1003.9 1003.8 0.0
17/01:30pm 36.7 35.7 14.6 26 13.8 SSW 13 24 7 13 1004.4 1004.3 0.0
17/01:00pm 36.3 35.4 13.7 25 13.9 WSW 11 19 6 10 1005.0 1004.9 0.0
17/12:30pm 35.4 34.4 14.6 28 12.9 SW 13 20 7 11 1005.6 1005.5 0.0
17/12:00pm 35.0 35.0 17.2 34 11.5 WSW 13 28 7 15 1006.0 1005.9 0.0
17/11:30am 34.2 34.5 18.7 40 10.1 SW 15 30 8 16 1006.5 1006.4 0.0
17/11:00am 33.5 33.6 19.2 43 9.4 SW 17 28 9 15 1006.7 1006.6 0.0
17/10:30am 33.0 34.1 21.2 50 8.0 SW 17 24 9 13 1007.1 1007.0 0.0
17/10:00am 31.9 32.3 19.9 49 7.9 SW 17 24 9 13 1007.5 1007.4 0.0
17/09:30am 31.2 32.7 20.5 53 7.1 SW 13 24 7 13 1007.7 1007.6 0.0
17/09:00am 30.5 31.9 21.0 57 6.4 WSW 15 24 8 13 1007.7 1007.6 0.0
17/08:30am 30.0 32.7 22.2 63 5.3 SW 11 20 6 11 1007.7 1007.6 0.0
17/08:00am 27.8 31.5 22.5 73 3.6 WNW 7 9 4 5 1007.6 1007.5 0.0
17/07:30am 26.5 29.3 21.5 74 3.3 WSW 9 13 5 7 1007.2 1007.1 0.0
17/07:00am 25.8 28.9 21.5 77 2.9 W 7 11 4 6 1006.6 1006.5 0.0
17/06:30am 24.9 27.9 21.2 80 2.4 WSW 7 9 4 5 1006.2 1006.1 0.0
17/06:00am 24.5 27.6 21.0 81 2.3 WSW 6 9 3 5 1005.8 1005.7 0.0
17/05:30am 24.8 27.1 20.7 78 2.7 W 9 11 5 6 1005.5 1005.4 0.0
17/05:00am 25.0 27.9 21.1 79 2.6 W 7 11 4 6 1005.1 1005.0 0.0
17/04:30am 24.4 27.8 20.9 81 2.3 WSW 4 7 2 4 1004.6 1004.5 0.0
17/04:00am 26.0 28.0 20.8 73 3.4 WNW 11 15 6 8 1004.1 1004.0 0.0
17/03:30am 25.9 28.0 20.9 74 3.3 WNW 11 15 6 8 1004.0 1003.9 0.0
17/03:00am 25.6 27.1 20.6 74 3.3 WNW 13 15 7 8 1003.8 1003.7 0.0
17/02:30am 24.6 27.0 20.9 80 2.4 WNW 9 11 5 6 1004.0 1003.9 0.0
17/02:00am 24.4 26.1 20.9 81 2.3 WNW 13 15 7 8 1004.1 1004.0 0.0
17/01:30am 23.5 26.4 21.0 86 1.6 WNW 7 9 4 5 1003.9 1003.8 0.0
17/01:00am 23.1 25.9 20.8 87 1.5 WNW 7 9 4 5 1004.0 1003.9 0.0
17/12:30am 23.4 27.5 20.7 85 1.8 CALM 0 0 0 0 1004.2 1004.1 0.0
17/12:00am 23.8 26.2 20.9 84 1.9 WNW 9 11 5 6 1004.3 1004.2 0.0
 
Date/Time
EST
Temp
°C
App
Temp
°C
Dew
Point
°C
Rel
Hum
%
Delta-T
°C
Wind Press
QNH
hPa
Press
MSL
hPa
Rain since
9am
mm
Dir  Spd
km/h
Gust
km/h
Spd
kts
Gust
kts
16/11:30pm 23.4 27.6 20.9 86 1.6 CALM 0 0 0 0 1004.8 1004.7 0.0
16/11:00pm 24.3 28.8 21.6 85 1.8 CALM 0 0 0 0 1005.0 1004.9 0.0
16/10:30pm 24.3 28.7 21.4 84 1.9 CALM 0 0 0 0 1004.8 1004.7 0.0
16/10:00pm 24.5 28.8 21.2 82 2.2 CALM 0 0 0 0 1004.7 1004.6 0.0
16/09:30pm 25.1 29.2 20.8 77 2.8 CALM 0 0 0 0 1004.3 1004.2 0.0
16/09:00pm 25.5 29.5 20.5 74 3.3 CALM 0 0 0 0 1004.2 1004.1 0.0
16/08:30pm 26.2 29.8 19.8 68 4.2 CALM 0 0 0 0 1003.7 1003.6 0.0
16/08:00pm 27.5 31.3 20.1 64 4.9 CALM 0 0 0 0 1003.2 1003.1 0.0
16/07:30pm 28.8 32.1 19.1 55 6.3 CALM 0 0 0 0 1003.1 1003.0 0.0
16/07:00pm 30.5 33.6 18.6 49 7.7 CALM 0 0 0 0 1002.8 1002.7 0.0
16/06:30pm 33.9 33.6 14.4 31 12.0 W 9 13 5 7 1002.4 1002.3 0.0
16/06:00pm 35.1 35.0 15.9 31 12.2 WSW 11 15 6 8 1001.9 1001.8 0.0
16/05:30pm 35.7 34.6 15.4 29 12.7 W 15 24 8 13 1001.5 1001.4 0.0
16/05:00pm 36.2 35.3 15.9 30 12.9 W 15 26 8 14 1001.2 1001.1 0.0
16/04:30pm 36.5 35.1 14.5 27 13.7 W 15 35 8 19 1001.0 1000.9 0.0
16/04:00pm 36.0 35.0 14.6 27 13.3 W 13 20 7 11 1001.0 1000.9 0.0
16/03:30pm 36.2 33.7 13.6 25 13.8 SW 19 33 10 18 1001.0 1000.9 0.0
16/03:00pm 36.7 35.3 14.6 26 13.8 SW 15 28 8 15 1001.3 1001.2 0.0
16/02:30pm 36.1 32.9 13.0 25 14.0 SW 22 35 12 19 1001.7 1001.6 0.0
16/02:00pm 35.4 34.2 16.2 32 12.2 W 17 28 9 15 1002.0 1001.9 0.0
16/01:30pm 35.5 34.4 16.3 32 12.2 WSW 17 30 9 16 1002.7 1002.6 0.0
16/01:00pm 35.0 32.7 15.8 31 12.1 WSW 22 43 12 23 1003.3 1003.2 0.0
16/12:30pm 34.2 33.1 17.8 37 10.6 WSW 20 37 11 20 1003.7 1003.6 0.0
16/12:00pm 33.6 33.2 19.3 43 9.4 WSW 20 39 11 21 1004.1 1004.0 0.0
16/11:30am 32.6 32.9 20.5 49 8.1 W 19 30 10 16 1004.2 1004.1 0.0
16/11:00am 32.1 34.0 22.8 58 6.4 W 17 24 9 13 1004.7 1004.6 0.0
16/10:30am 31.1 33.2 22.4 60 5.9 W 15 26 8 14 1005.3 1005.2 0.0
16/10:00am 30.3 30.9 21.4 59 6.0 W 20 33 11 18 1005.4 1005.3 0.0
16/09:30am 30.4 32.1 22.3 62 5.5 W 17 28 9 15 1005.8 1005.7 0.0
16/09:00am 29.5 31.6 22.5 66 4.8 W 15 26 8 14 1005.6 1005.5 46.0
16/08:30am 28.9 31.4 23.1 71 4.0 W 15 30 8 16 1005.2 1005.1 46.0
16/08:00am 27.8 30.2 23.0 75 3.3 W 15 28 8 15 1005.0 1004.9 45.8
16/07:30am 27.1 28.6 22.7 77 3.0 WNW 19 28 10 15 1004.8 1004.7 45.8
16/07:00am 26.7 27.9 22.5 78 2.8 W 20 32 11 17 1004.5 1004.4 45.8
16/06:30am 26.4 27.3 22.7 80 2.5 W 22 35 12 19 1004.3 1004.2 45.8
16/06:00am 26.3 27.9 22.8 81 2.4 W 19 30 10 16 1003.8 1003.7 45.8
16/05:30am 26.4 27.9 22.7 80 2.5 W 19 30 10 16 1003.4 1003.3 45.8
16/05:00am 26.5 28.1 22.8 80 2.5 W 19 32 10 17 1003.0 1002.9 45.8
16/04:30am 26.5 28.2 23.0 81 2.4 W 19 26 10 14 1002.3 1002.2 45.8
16/04:00am 26.4 28.8 22.9 81 2.4 W 15 24 8 13 1001.8 1001.7 45.8
16/03:30am 26.4 29.0 23.3 83 2.1 WNW 15 22 8 12 1001.6 1001.5 45.8
16/03:00am 26.7 28.7 23.6 83 2.1 WNW 19 24 10 13 1001.7 1001.6 45.8
16/02:30am 26.8 29.0 23.9 84 2.0 NW 19 22 10 12 1001.7 1001.6 45.8
16/02:00am 26.3 30.2 24.2 88 1.5 NW 11 13 6 7 1001.9 1001.8 45.8
16/01:30am 26.4 29.8 24.1 87 1.6 WNW 13 17 7 9 1002.2 1002.1 45.8
16/01:00am 26.6 30.5 24.3 87 1.6 WNW 11 15 6 8 1002.6 1002.5 45.8
16/12:30am 26.7 30.6 24.2 86 1.7 WNW 11 15 6 8 1002.9 1002.8 45.8
16/12:00am 27.0 30.2 24.3 85 1.9 WNW 15 20 8 11 1003.0 1002.9 45.8
 
Date/Time
EST
Temp
°C
App
Temp
°C
Dew
Point
°C
Rel
Hum
%
Delta-T
°C
Wind Press
QNH
hPa
Press
MSL
hPa
Rain since
9am
mm
Dir  Spd
km/h
Gust
km/h
Spd
kts
Gust
kts
15/11:30pm 27.2 31.1 24.3 84 2.0 WNW 11 19 6 10 1003.3 1003.2 45.8
15/11:00pm 27.4 30.8 24.7 85 1.9 WNW 15 19 8 10 1003.0 1002.9 45.8
15/10:30pm 27.5 31.5 25.1 87 1.7 WNW 13 19 7 10 1003.1 1003.0 45.8
15/10:00pm 27.6 32.7 25.6 89 1.4 WNW 9 11 5 6 1002.8 1002.7 45.8
15/09:30pm 27.2 33.0 26.0 93 0.8 WNW 7 13 4 7 1002.4 1002.3 45.8
15/09:00pm 27.2 34.3 26.0 93 0.9 CALM 0 0 0 0 1002.1 1002.0 45.8
15/08:30pm 27.3 34.3 25.9 92 1.0 CALM 0 0 0 0 1001.9 1001.8 45.8
15/08:00pm 27.4 34.5 26.0 92 1.0 CALM 0 0 0 0 1001.9 1001.8 45.8
15/07:30pm 27.5 34.2 25.9 91 1.1 NNW 2 7 1 4 1001.8 1001.7 45.8
15/07:00pm 27.6 33.2 25.8 90 1.3 NNW 7 9 4 5 1001.5 1001.4 45.8
15/06:30pm 28.0 33.1 25.6 87 1.7 N 9 17 5 9 1001.4 1001.3 45.8
15/06:00pm 28.3 33.5 25.7 86 1.8 NNE 9 11 5 6 1001.4 1001.3 45.8
15/05:30pm 29.3 34.5 25.7 81 2.5 NNE 9 19 5 10 1001.0 1000.9 45.8
15/05:00pm 29.8 34.1 25.5 78 3.0 N 13 20 7 11 1000.4 1000.3 45.8
15/04:30pm 29.4 32.8 25.2 78 3.0 N 17 26 9 14 1000.5 1000.4 45.8
15/04:00pm 30.4 34.5 26.3 79 2.9 N 17 26 9 14 1000.3 1000.2 45.8
15/03:30pm 29.7 33.1 25.2 77 3.2 NNE 17 30 9 16 1000.2 1000.1 45.8
15/03:00pm 30.2 34.6 25.7 77 3.2 NNE 13 19 7 10 1000.6 1000.5 45.8
15/02:30pm 29.9 35.6 26.5 82 2.4 NE 9 17 5 9 1000.9 1000.8 45.8
15/02:00pm 29.3 35.2 26.7 86 1.9 ENE 9 11 5 6 1001.8 1001.7 45.8
15/01:30pm 28.4 35.7 26.8 91 1.1 ESE 2 13 1 7 1002.7 1002.6 45.8
15/01:00pm 27.3 32.9 25.5 90 1.3 ENE 6 7 3 4 1002.7 1002.6 45.8
15/12:30pm 27.1 32.3 25.7 92 1.0 NE 9 17 5 9 1003.3 1003.2 45.2
15/12:07pm 26.7 31.9 25.7 94 0.7 E 9 11 5 6 1003.8 1003.7 45.2
15/12:03pm 26.8 32.4 25.8 94 0.7 ENE 7 9 4 5 1003.9 1003.8 45.2
15/12:00pm 26.6 32.1 25.6 94 0.7 NE 7 15 4 8 1003.8 1003.7 45.2
15/11:33am 26.5 31.6 25.5 94 0.7 WNW 9 17 5 9 1005.0 1004.9 28.8
15/11:30am 26.8 32.4 25.8 94 0.7 SW 7 15 4 8 1004.9 1004.8 22.2
15/11:26am 26.9 32.7 25.7 93 0.8 SSE 6 9 3 5 1004.2 1004.1 17.6
15/11:16am 26.7 33.0 25.3 92 1.0 NE 2 6 1 3 1003.9 1003.8 16.2
15/11:00am 26.3 30.1 24.7 91 1.1 NE 13 28 7 15 1004.1 1004.0 16.2
15/10:46am 27.6 33.2 25.4 88 1.5 W 6 9 3 5 1004.6 1004.5 3.8
15/10:31am 28.3 33.0 24.9 82 2.4 NNE 9 17 5 9 1004.9 1004.8 0.6
15/10:30am 28.7 33.6 25.3 82 2.4 NNE 9 15 5 8 1004.9 1004.8 0.2
15/10:00am 29.4 32.4 24.7 76 3.3 N 17 26 9 14 1005.3 1005.2 0.0
15/09:30am 28.8 33.2 25.0 80 2.7 N 11 15 6 8 1005.6 1005.5 0.0
15/09:00am 28.3 32.5 24.7 81 2.5 NNE 11 19 6 10 1005.5 1005.4 1.8
15/08:30am 27.1 30.8 24.6 86 1.7 N 13 20 7 11 1005.7 1005.6 1.8
15/08:25am 27.0 30.6 24.3 85 1.9 N 13 20 7 11 1005.6 1005.5 1.8
15/08:00am 27.1 31.5 25.1 89 1.4 NNE 11 17 6 9 1006.2 1006.1 1.8
15/07:53am 27.0 31.6 24.8 88 1.5 NNE 9 15 5 8 1006.3 1006.2 1.8
15/07:48am 27.1 32.5 25.1 89 1.4 NNE 6 11 3 6 1006.2 1006.1 1.8
15/07:30am 26.6 33.3 25.4 93 0.8 CALM 0 0 0 0 1005.7 1005.6 1.8
15/07:12am 25.8 31.4 24.8 94 0.7 ENE 4 11 2 6 1005.7 1005.6 1.6
15/07:00am 25.7 32.0 24.7 94 0.7 CALM 0 0 0 0 1005.4 1005.3 1.6
15/06:34am 25.6 31.1 24.6 94 0.7 NW 4 9 2 5 1005.8 1005.7 1.4
15/06:30am 25.5 30.5 24.5 94 0.7 NNW 6 11 3 6 1005.9 1005.8 1.4
15/06:00am 25.2 31.2 24.2 94 0.7 CALM 0 0 0 0 1005.0 1004.9 1.4
15/05:30am 25.2 31.2 24.2 94 0.7 CALM 0 0 0 0 1004.7 1004.6 1.4
15/05:00am 25.2 31.2 24.3 95 0.6 CALM 0 0 0 0 1004.5 1004.4 1.4
15/04:36am 25.3 31.3 24.3 94 0.7 CALM 0 0 0 0 1003.9 1003.8 1.4
15/04:30am 25.2 31.2 24.2 94 0.7 CALM 0 0 0 0 1003.8 1003.7 1.4
15/04:00am 25.2 31.2 24.2 94 0.7 CALM 0 0 0 0 1003.9 1003.8 1.4
15/03:30am 25.4 31.5 24.4 94 0.7 CALM 0 0 0 0 1003.9 1003.8 1.2
15/03:13am 25.5 31.6 24.5 94 0.7 CALM 0 0 0 0 1004.4 1004.3 1.2
15/03:00am 25.4 31.4 24.2 93 0.8 CALM 0 0 0 0 1004.6 1004.5 1.2
15/02:30am 25.3 31.3 24.3 94 0.7 CALM 0 0 0 0 1004.7 1004.6 1.2
15/02:00am 25.3 31.2 24.1 93 0.8 CALM 0 0 0 0 1005.1 1005.0 1.2
15/01:30am 25.3 31.2 24.1 93 0.8 CALM 0 0 0 0 1005.1 1005.0 1.2
15/01:00am 25.4 31.4 24.2 93 0.8 CALM 0 0 0 0 1004.8 1004.7 1.2
15/12:30am 25.3 31.1 23.9 92 1.0 CALM 0 0 0 0 1005.0 1004.9 1.2
15/12:00am 25.3 31.1 23.9 92 1.0 CALM 0 0 0 0 1005.5 1005.4 1.2
 
Date/Time
EST
Temp
°C
App
Temp
°C
Dew
Point
°C
Rel
Hum
%
Delta-T
°C
Wind Press
QNH
hPa
Press
MSL
hPa
Rain since
9am
mm
Dir  Spd
km/h
Gust
km/h
Spd
kts
Gust
kts
14/11:30pm 25.3 30.4 24.1 93 0.8 NW 4 7 2 4 1005.9 1005.8 1.2
14/11:00pm 25.5 31.4 24.1 92 1.0 CALM 0 0 0 0 1006.1 1006.0 1.2
14/10:30pm 25.6 31.6 24.2 92 1.0 CALM 0 0 0 0 1006.2 1006.1 1.2
14/10:00pm 25.9 31.9 24.3 91 1.1 CALM 0 0 0 0 1006.0 1005.9 1.2
14/09:30pm 25.9 30.8 24.3 91 1.1 W 6 11 3 6 1006.1 1006.0 1.2
14/09:00pm 26.1 30.9 24.5 91 1.1 NW 7 9 4 5 1005.8 1005.7 1.2

Other Formats:

Comma delimited format used in spreadsheet applications
http://www.bom.gov.au/fwo/IDQ60801/IDQ60801.95283.axf

JavaScript Object Notation format (JSON) in row-major order
http://www.bom.gov.au/fwo/IDQ60801/IDQ60801.95283.json